Time;durP1;ratioP1;P1;durP2;ratioP2;P2;SDS_P1;SDS_P2;PMS_P1;PMS_P2;Temp;Humidity;BMP_temperature;BMP_pressure;BME280_temperature;BME280_humidity;BME280_pressure;Samples;Min_cycle;Max_cycle;Signal;HPM_P1;HPM_P2
2021/12/30 00:01:38;;;;;;;13.05;10.15;;;;;;;17.82;21.12;99631.75;5118598;27;20635;-64
2021/12/30 00:04:04;;;;;;;14.20;10.18;;;;;;;17.79;21.54;99635.56;5132111;27;20526;-63
2021/12/30 00:06:37;;;;;;;12.48;9.35;;;;;;;17.82;21.40;99631.75;5130461;27;20486;-63
2021/12/30 00:09:03;;;;;;;12.13;8.82;;;;;;;17.79;21.73;99637.41;5115313;27;20035;-64
2021/12/30 00:11:28;;;;;;;15.77;11.05;;;;;;;17.74;21.58;99637.94;5116438;27;20469;-63
2021/12/30 00:13:55;;;;;;;12.55;9.45;;;;;;;17.77;21.66;99639.41;5119455;27;20039;-62
2021/12/30 00:16:21;;;;;;;14.85;8.90;;;;;;;17.89;21.36;99638.09;5132540;27;20058;-70
2021/12/30 00:18:47;;;;;;;12.65;9.35;;;;;;;18.10;21.23;99634.13;5113320;27;20127;-68
2021/12/30 00:21:13;;;;;;;14.50;10.40;;;;;;;18.22;21.13;99634.63;5131871;27;20075;-69
2021/12/30 00:23:39;;;;;;;16.05;10.63;;;;;;;18.27;21.13;99634.94;5117595;27;20039;-68
2021/12/30 00:26:06;;;;;;;12.57;9.63;;;;;;;18.32;20.95;99627.25;5112782;27;20383;-69
2021/12/30 00:28:32;;;;;;;14.40;10.98;;;;;;;18.36;20.77;99628.59;5101611;27;20112;-68
2021/12/30 00:30:58;;;;;;;14.50;10.95;;;;;;;18.38;20.83;99623.88;5123660;27;20521;-68
2021/12/30 00:33:24;;;;;;;11.75;9.27;;;;;;;18.39;21.07;99630.91;5122268;27;20035;-68
2021/12/30 00:35:49;;;;;;;12.27;9.45;;;;;;;18.33;20.91;99634.28;5131094;27;20034;-68
2021/12/30 00:38:16;;;;;;;13.35;9.25;;;;;;;18.30;21.13;99646.19;5123165;27;20051;-68
2021/12/30 00:40:42;;;;;;;13.60;9.43;;;;;;;18.26;20.89;99638.63;5119146;27;20049;-68
2021/12/30 00:43:08;;;;;;;13.50;9.88;;;;;;;18.25;20.95;99635.13;5112747;28;20126;-70
2021/12/30 00:45:35;;;;;;;14.70;10.20;;;;;;;18.25;21.19;99632.44;5112910;28;20509;-70
2021/12/30 00:48:01;;;;;;;14.15;10.45;;;;;;;18.24;21.02;99636.13;5115058;27;20066;-72
2021/12/30 00:50:28;;;;;;;17.73;10.63;;;;;;;18.27;21.13;99630.44;5131019;27;20035;-71
2021/12/30 00:52:53;;;;;;;15.90;10.82;;;;;;;18.29;21.12;99644.50;5130243;27;20057;-73
2021/12/30 00:55:19;;;;;;;14.43;10.18;;;;;;;18.34;21.02;99645.81;5132100;28;20034;-73
2021/12/30 00:57:45;;;;;;;13.70;10.40;;;;;;;18.37;21.18;99634.78;5131433;28;20031;-71
2021/12/30 01:00:14;;;;;;;16.10;11.13;;;;;;;18.38;20.90;99629.25;5122000;28;20158;-70
2021/12/30 01:02:41;;;;;;;14.15;11.15;;;;;;;18.41;20.80;99630.75;5112343;28;20077;-71
2021/12/30 01:05:08;;;;;;;15.00;10.80;;;;;;;18.44;21.03;99635.78;5116006;28;20034;-69
2021/12/30 01:07:34;;;;;;;12.57;9.85;;;;;;;18.45;21.12;99629.41;5113517;28;20046;-71
2021/12/30 01:10:00;;;;;;;15.68;10.93;;;;;;;18.44;20.94;99631.25;5126526;28;20035;-69
2021/12/30 01:12:26;;;;;;;15.30;10.82;;;;;;;18.40;20.96;99631.75;5117252;28;20038;-68
2021/12/30 01:14:52;;;;;;;15.23;11.25;;;;;;;18.39;20.79;99632.78;5122929;28;20039;-68
2021/12/30 01:17:25;;;;;;;14.88;10.57;;;;;;;18.34;20.54;99627.06;5127738;28;20121;-71
2021/12/30 01:19:51;;;;;;;12.80;10.25;;;;;;;18.27;20.75;99624.22;5120025;28;20035;-69
2021/12/30 01:22:20;;;;;;;13.20;9.65;;;;;;;18.27;20.73;99617.06;5119185;28;20035;-72
2021/12/30 01:24:46;;;;;;;13.18;9.52;;;;;;;18.22;20.69;99611.34;5117681;28;20046;-75
2021/12/30 01:27:12;;;;;;;15.05;10.68;;;;;;;18.21;20.70;99624.94;5111853;28;20151;-67
2021/12/30 01:29:38;;;;;;;13.55;10.20;;;;;;;18.15;20.70;99621.09;5113342;28;20039;-68
2021/12/30 01:32:04;;;;;;;13.00;10.27;;;;;;;18.13;20.89;99620.41;5122173;28;20030;-71
2021/12/30 01:34:31;;;;;;;12.75;9.63;;;;;;;18.11;20.80;99614.38;5114307;28;20035;-69
2021/12/30 01:37:01;;;;;;;13.88;10.25;;;;;;;18.09;20.65;99621.75;5124750;28;20040;-70
2021/12/30 01:39:27;;;;;;;23.77;10.32;;;;;;;18.06;20.85;99622.06;5125889;28;20441;-71
2021/12/30 01:41:53;;;;;;;13.60;9.73;;;;;;;18.06;20.73;99622.91;5113040;28;20724;-73
2021/12/30 01:44:19;;;;;;;13.50;9.52;;;;;;;18.02;20.75;99623.41;5113546;28;20031;-70
2021/12/30 01:46:45;;;;;;;16.00;10.43;;;;;;;17.97;20.89;99614.06;5113884;27;20084;-71
2021/12/30 01:49:13;;;;;;;13.38;9.73;;;;;;;17.96;20.95;99606.13;5120035;27;20027;-70
2021/12/30 01:51:40;;;;;;;14.13;9.98;;;;;;;17.94;20.81;99609.00;5134638;27;20030;-69
2021/12/30 01:54:07;;;;;;;15.25;11.18;;;;;;;17.94;20.64;99598.28;5132077;27;20035;-71
2021/12/30 01:56:32;;;;;;;13.82;10.00;;;;;;;17.90;20.61;99599.63;5115767;27;20034;-68
2021/12/30 01:58:58;;;;;;;13.15;9.95;;;;;;;17.84;20.72;99597.63;5134374;27;20086;-70
2021/12/30 02:01:25;;;;;;;11.63;9.50;;;;;;;17.82;20.91;99604.97;5133164;27;20031;-69
2021/12/30 02:03:51;;;;;;;11.20;8.90;;;;;;;17.80;20.76;99602.44;5117884;27;20035;-70
2021/12/30 02:06:17;;;;;;;15.38;10.60;;;;;;;17.79;20.70;99597.28;5117144;27;20023;-69
2021/12/30 02:08:43;;;;;;;13.70;10.23;;;;;;;17.83;20.76;99601.31;5116476;27;20383;-68
2021/12/30 02:11:09;;;;;;;14.38;8.98;;;;;;;17.86;20.83;99590.28;5131882;27;20027;-67
2021/12/30 02:13:34;;;;;;;12.88;9.40;;;;;;;17.84;20.69;99600.31;5124275;27;20474;-67
2021/12/30 02:16:02;;;;;;;12.27;9.55;;;;;;;17.82;20.92;99592.41;5134033;27;20131;-70
2021/12/30 02:18:29;;;;;;;13.88;10.05;;;;;;;17.83;20.45;99590.59;5118537;27;20055;-70
2021/12/30 02:20:56;;;;;;;12.38;9.43;;;;;;;17.86;20.39;99590.28;5114759;27;20441;-68
2021/12/30 02:23:26;;;;;;;13.02;9.55;;;;;;;17.83;20.45;99583.38;5116049;27;20032;-69
2021/12/30 02:25:54;;;;;;;13.40;10.27;;;;;;;17.83;20.60;99591.41;5114754;27;20132;-71
2021/12/30 02:28:23;;;;;;;12.45;9.63;;;;;;;17.82;20.67;99591.59;5114646;27;20239;-71
2021/12/30 02:30:50;;;;;;;15.27;11.30;;;;;;;17.79;20.91;99586.56;5129670;27;20495;-69
2021/12/30 02:33:15;;;;;;;13.40;9.07;;;;;;;17.76;20.79;99584.22;5133649;27;20038;-69
2021/12/30 02:35:41;;;;;;;13.13;9.50;;;;;;;17.72;20.59;99583.72;5133693;27;20650;-71
2021/12/30 02:38:07;;;;;;;12.88;9.23;;;;;;;17.73;20.80;99587.22;5126960;27;20059;-67
2021/12/30 02:40:39;;;;;;;12.55;9.82;;;;;;;17.75;20.91;99585.22;5114525;27;20511;-72
2021/12/30 02:43:10;;;;;;;13.70;9.35;;;;;;;17.72;20.80;99588.25;5114217;27;20698;-71
2021/12/30 02:45:35;;;;;;;12.20;8.52;;;;;;;17.70;20.82;99580.38;5133846;27;20030;-71
2021/12/30 02:48:01;;;;;;;13.32;9.80;;;;;;;17.72;20.75;99589.06;5132808;27;20112;-67
2021/12/30 02:50:27;;;;;;;12.27;8.77;;;;;;;17.73;21.06;99590.75;5133472;27;20030;-68
2021/12/30 02:52:52;;;;;;;12.10;8.57;;;;;;;17.69;20.87;99582.22;5132485;27;20500;-70
2021/12/30 02:55:18;;;;;;;12.27;9.02;;;;;;;17.70;20.95;99583.06;5133342;27;20397;-68
2021/12/30 02:57:43;;;;;;;11.88;8.75;;;;;;;17.70;20.88;99580.38;5117565;27;20516;-69
2021/12/30 03:00:10;;;;;;;11.15;8.70;;;;;;;17.74;21.00;99579.06;5113887;27;20440;-69
2021/12/30 03:02:39;;;;;;;11.48;8.90;;;;;;;17.75;20.93;99575.38;5117805;27;20031;-72
2021/12/30 03:05:07;;;;;;;11.52;8.73;;;;;;;17.74;20.94;99572.84;5114326;28;20031;-71
2021/12/30 03:07:33;;;;;;;13.60;9.40;;;;;;;17.67;20.84;99565.50;5114305;27;20122;-69
2021/12/30 03:09:59;;;;;;;12.23;9.15;;;;;;;17.69;21.03;99563.50;5103645;27;20501;-72
2021/12/30 03:12:25;;;;;;;13.30;8.45;;;;;;;17.67;20.88;99568.19;5115848;27;20031;-72
2021/12/30 03:14:51;;;;;;;13.73;8.80;;;;;;;17.63;21.09;99564.16;5113623;27;20036;-71
2021/12/30 03:17:16;;;;;;;11.43;9.35;;;;;;;17.64;20.96;99565.81;5113396;27;20119;-71
2021/12/30 03:19:42;;;;;;;14.75;10.25;;;;;;;17.63;20.96;99564.16;5113832;27;20086;-69
2021/12/30 03:22:07;;;;;;;12.27;9.30;;;;;;;17.64;21.14;99565.00;5116122;27;20035;-70
2021/12/30 03:24:35;;;;;;;9.02;7.90;;;;;;;17.61;21.13;99571.50;5120096;27;20031;-68
2021/12/30 03:27:02;;;;;;;12.80;9.18;;;;;;;17.62;20.91;99564.31;5132160;27;20031;-68
2021/12/30 03:29:28;;;;;;;13.10;9.50;;;;;;;17.65;21.24;99567.50;5132888;27;20035;-68
2021/12/30 03:31:53;;;;;;;14.13;9.25;;;;;;;17.64;21.08;99570.34;5122355;27;20019;-70
2021/12/30 03:34:19;;;;;;;10.43;9.02;;;;;;;17.61;21.12;99570.69;5113807;28;20118;-68
2021/12/30 03:36:45;;;;;;;12.45;8.45;;;;;;;17.62;21.10;99567.00;5113932;27;20107;-70
2021/12/30 03:39:12;;;;;;;13.90;10.63;;;;;;;17.64;21.18;99563.16;5113434;27;20027;-69
2021/12/30 03:41:38;;;;;;;16.17;9.65;;;;;;;17.64;21.05;99568.50;5112840;27;20036;-69
2021/12/30 03:44:03;;;;;;;12.43;9.63;;;;;;;17.66;21.03;99565.66;5113446;27;20057;-70
2021/12/30 03:46:30;;;;;;;13.15;9.63;;;;;;;17.68;21.10;99561.81;5113205;27;20072;-68
2021/12/30 03:48:58;;;;;;;12.20;8.57;;;;;;;17.67;21.51;99562.81;5129733;27;20076;-67
2021/12/30 03:51:25;;;;;;;12.40;9.35;;;;;;;17.67;21.33;99570.84;5114807;27;20054;-68
2021/12/30 03:53:53;;;;;;;11.77;9.18;;;;;;;17.68;21.39;99564.50;5112697;28;20536;-68
2021/12/30 03:56:22;;;;;;;10.73;9.05;;;;;;;17.69;21.36;99559.97;5113082;27;20035;-69
2021/12/30 03:58:49;;;;;;;11.23;9.05;;;;;;;17.66;21.29;99561.16;5115608;27;20040;-68
2021/12/30 04:01:18;;;;;;;14.60;9.50;;;;;;;17.68;21.34;99561.81;5112431;27;20115;-68
2021/12/30 04:03:44;;;;;;;10.95;8.15;;;;;;;17.65;21.13;99551.44;5116294;27;20038;-71
2021/12/30 04:06:10;;;;;;;10.60;8.02;;;;;;;17.62;21.26;99551.78;5112560;27;20183;-71
2021/12/30 04:08:36;;;;;;;13.75;9.23;;;;;;;17.64;21.53;99538.25;5112822;27;20034;-71
2021/12/30 04:11:03;;;;;;;12.68;9.13;;;;;;;17.67;21.42;99538.75;5128560;27;20031;-68
2021/12/30 04:13:29;;;;;;;15.20;9.10;;;;;;;17.65;21.15;99529.19;5119477;27;20035;-71
2021/12/30 04:15:55;;;;;;;12.52;8.68;;;;;;;17.64;21.46;99544.41;5115036;27;20123;-70
2021/12/30 04:18:21;;;;;;;11.52;8.85;;;;;;;17.61;21.32;99547.44;5112160;27;20205;-69
2021/12/30 04:20:46;;;;;;;11.30;9.15;;;;;;;17.61;21.15;99551.94;5112343;28;20035;-71
2021/12/30 04:23:13;;;;;;;12.25;9.05;;;;;;;17.61;21.23;99543.94;5115697;27;20047;-69
2021/12/30 04:25:39;;;;;;;10.98;8.90;;;;;;;17.62;21.28;99538.41;5112209;28;20035;-69
2021/12/30 04:28:04;;;;;;;12.48;9.13;;;;;;;17.62;21.10;99543.75;5112445;27;20063;-71
2021/12/30 04:30:31;;;;;;;11.90;8.60;;;;;;;17.59;21.63;99540.56;5112714;27;20044;-69
2021/12/30 04:32:57;;;;;;;11.07;8.38;;;;;;;17.62;21.62;99545.59;5130502;27;20035;-72
2021/12/30 04:35:22;;;;;;;11.52;8.88;;;;;;;17.61;21.45;99546.59;5130883;27;20122;-70
2021/12/30 04:37:48;;;;;;;12.75;9.52;;;;;;;17.57;21.58;99543.44;5112420;27;20180;-71
2021/12/30 04:40:14;;;;;;;10.75;9.05;;;;;;;17.59;21.48;99548.59;5124393;27;20046;-72
2021/12/30 04:42:40;;;;;;;11.93;8.50;;;;;;;17.57;21.40;99543.44;5112681;28;20470;-68
2021/12/30 04:45:07;;;;;;;13.05;9.85;;;;;;;17.60;21.28;99543.06;5124316;27;20027;-70
2021/12/30 04:47:33;;;;;;;14.55;10.10;;;;;;;17.64;21.20;99541.75;5130893;27;20031;-68
2021/12/30 04:49:59;;;;;;;14.30;9.65;;;;;;;17.64;21.11;99536.41;5131031;27;20069;-70
2021/12/30 04:52:28;;;;;;;13.32;9.20;;;;;;;17.63;21.20;99548.09;5130753;27;20339;-67
2021/12/30 04:54:53;;;;;;;11.85;8.32;;;;;;;17.63;21.31;99552.63;5131028;27;20049;-70
2021/12/30 04:57:19;;;;;;;12.57;8.90;;;;;;;17.63;21.48;99550.78;5112163;28;20367;-70
2021/12/30 04:59:45;;;;;;;10.82;8.20;;;;;;;17.64;21.09;99552.44;5123768;28;20113;-66
2021/12/30 05:02:11;;;;;;;10.80;8.18;;;;;;;17.62;21.35;99548.28;5130097;28;20027;-71
2021/12/30 05:04:37;;;;;;;10.43;8.52;;;;;;;17.63;21.14;99548.09;5118382;28;20036;-67
2021/12/30 05:07:03;;;;;;;14.25;9.63;;;;;;;17.62;21.52;99542.94;5114735;28;20040;-69
2021/12/30 05:09:28;;;;;;;11.82;9.40;;;;;;;17.63;21.34;99553.44;5114687;28;20038;-70
2021/12/30 05:11:54;;;;;;;12.32;8.77;;;;;;;17.64;21.17;99557.81;5119128;28;20034;-69
2021/12/30 05:14:20;;;;;;;10.90;8.88;;;;;;;17.66;21.17;99552.28;5131043;28;20032;-71
2021/12/30 05:16:46;;;;;;;10.82;8.27;;;;;;;17.67;21.17;99560.16;5130862;28;20486;-68
2021/12/30 05:19:11;;;;;;;11.82;8.82;;;;;;;17.64;21.18;99547.09;5130559;28;20499;-67
2021/12/30 05:21:37;;;;;;;16.27;9.00;;;;;;;17.64;21.24;99548.94;5131783;27;20455;-69
2021/12/30 05:24:04;;;;;;;10.07;8.25;;;;;;;17.62;21.41;99546.44;5134757;27;20031;-68
2021/12/30 05:26:30;;;;;;;12.43;8.13;;;;;;;17.63;21.17;99536.56;5134567;27;20042;-70
2021/12/30 05:28:57;;;;;;;10.45;8.38;;;;;;;17.65;21.35;99539.91;5135338;27;20023;-69
2021/12/30 05:31:23;;;;;;;11.73;8.30;;;;;;;17.66;21.17;99537.06;5128296;27;20027;-68
2021/12/30 05:33:49;;;;;;;11.77;8.75;;;;;;;17.68;21.46;99534.22;5118153;27;20042;-71
2021/12/30 05:36:15;;;;;;;10.48;7.68;;;;;;;17.69;21.19;99522.50;5115729;27;20032;-73
2021/12/30 05:38:41;;;;;;;10.32;7.45;;;;;;;17.68;21.26;99521.69;5117332;27;20123;-68
2021/12/30 05:41:06;;;;;;;8.73;7.10;;;;;;;17.68;21.15;99520.84;5115505;28;20035;-70
2021/12/30 05:43:32;;;;;;;11.85;7.90;;;;;;;17.68;21.33;99529.72;5115512;27;20031;-68
2021/12/30 05:45:57;;;;;;;8.65;7.10;;;;;;;17.69;21.29;99542.09;5115721;27;20036;-70
2021/12/30 05:48:23;;;;;;;9.90;7.60;;;;;;;17.73;21.53;99547.09;5118020;27;20039;-71
2021/12/30 05:50:49;;;;;;;10.60;8.10;;;;;;;17.72;21.15;99546.25;5115478;27;20028;-71
2021/12/30 05:53:15;;;;;;;11.07;8.85;;;;;;;17.72;21.14;99559.66;5118108;27;20486;-70
2021/12/30 05:55:41;;;;;;;8.93;7.15;;;;;;;17.73;21.47;99557.78;5115130;28;20088;-69
2021/12/30 05:58:06;;;;;;;9.77;7.75;;;;;;;17.74;21.24;99554.97;5115301;27;20020;-68
2021/12/30 06:00:32;;;;;;;10.77;7.22;;;;;;;17.74;21.25;99554.97;5115638;27;20031;-69
2021/12/30 06:02:59;;;;;;;9.98;7.32;;;;;;;17.76;21.37;99552.97;5118973;27;20064;-72
2021/12/30 06:05:24;;;;;;;9.55;7.18;;;;;;;17.80;21.34;99558.81;5115250;27;20458;-70
2021/12/30 06:07:50;;;;;;;10.43;7.63;;;;;;;17.80;21.32;99548.09;5114708;27;20110;-69
2021/12/30 06:10:16;;;;;;;8.43;7.07;;;;;;;17.83;21.42;99558.47;5122054;27;20034;-70
2021/12/30 06:12:43;;;;;;;9.98;7.38;;;;;;;17.86;21.34;99552.78;5127363;27;20027;-68
2021/12/30 06:15:10;;;;;;;12.00;8.10;;;;;;;17.88;21.41;99553.44;5124908;27;20546;-71
2021/12/30 06:17:37;;;;;;;9.60;7.65;;;;;;;17.89;21.27;99549.75;5113902;27;20035;-69
2021/12/30 06:20:08;;;;;;;11.68;7.18;;;;;;;17.89;21.24;99547.09;5114764;27;20054;-70
2021/12/30 06:22:34;;;;;;;;;;;;;;;17.78;21.97;99553.63;5132970;27;20039;-71
2021/12/30 06:24:59;;;;;;;10.02;7.07;;;;;;;17.80;21.75;99548.09;5133679;27;19935;-71
2021/12/30 06:27:25;;;;;;;10.52;7.70;;;;;;;17.82;21.26;99557.63;5133839;27;20035;-68
2021/12/30 06:29:50;;;;;;;10.93;8.23;;;;;;;17.86;21.57;99563.50;5134478;27;20653;-68
2021/12/30 06:32:16;;;;;;;10.25;7.97;;;;;;;17.88;21.29;99563.31;5122661;27;20478;-67
2021/12/30 06:34:42;;;;;;;13.90;8.23;;;;;;;17.90;21.17;99564.00;5132797;27;20046;-72
2021/12/30 06:37:07;;;;;;;12.05;8.30;;;;;;;17.92;21.35;99557.47;5133747;27;20080;-68
2021/12/30 06:39:33;;;;;;;11.18;7.97;;;;;;;17.95;21.36;99566.97;5133344;27;20033;-69
2021/12/30 06:41:58;;;;;;;11.13;7.07;;;;;;;17.95;21.07;99565.16;5132356;27;20089;-68
2021/12/30 06:44:24;;;;;;;13.18;8.38;;;;;;;17.96;21.18;99561.47;5133406;27;20117;-69
2021/12/30 06:46:56;;;;;;;12.55;7.88;;;;;;;17.99;20.98;99563.84;5125855;27;20039;-69
2021/12/30 06:49:22;;;;;;;12.75;8.48;;;;;;;18.02;21.37;99559.16;5121340;27;20039;-68
2021/12/30 06:51:47;;;;;;;9.68;7.38;;;;;;;18.05;21.31;99562.34;5114289;27;20115;-70
2021/12/30 06:54:13;;;;;;;12.40;8.63;;;;;;;18.04;21.27;99555.31;5132444;27;20451;-68
2021/12/30 06:56:39;;;;;;;11.23;8.10;;;;;;;18.08;21.15;99548.63;5134007;27;20035;-71
2021/12/30 06:59:05;;;;;;;13.30;8.27;;;;;;;18.09;21.21;99549.44;5135102;27;20450;-69
2021/12/30 07:01:31;;;;;;;10.35;8.13;;;;;;;18.10;21.19;99556.47;5133985;27;20069;-70
2021/12/30 07:03:57;;;;;;;12.45;8.30;;;;;;;18.13;21.18;99554.28;5134755;27;20351;-68
2021/12/30 07:06:24;;;;;;;11.85;7.72;;;;;;;18.15;20.97;99559.50;5134108;27;21285;-71
2021/12/30 07:08:49;;;;;;;13.05;8.77;;;;;;;18.17;21.26;99553.97;5134626;27;20371;-71
2021/12/30 07:11:15;;;;;;;10.93;8.00;;;;;;;18.20;21.10;99561.66;5133678;27;20039;-69
2021/12/30 07:13:41;;;;;;;11.25;8.07;;;;;;;18.19;21.16;99557.31;5111687;27;20038;-68
2021/12/30 07:16:06;;;;;;;11.25;7.93;;;;;;;18.21;21.01;99558.78;5116025;27;20031;-68
2021/12/30 07:18:32;;;;;;;11.85;8.02;;;;;;;18.25;21.00;99561.97;5132783;27;20425;-71
2021/12/30 07:20:58;;;;;;;11.63;8.02;;;;;;;18.27;20.79;99568.00;5128152;27;20035;-68
2021/12/30 07:23:24;;;;;;;14.45;8.77;;;;;;;18.25;21.01;99564.63;5134106;27;20046;-69
2021/12/30 07:25:49;;;;;;;9.63;7.45;;;;;;;18.25;21.18;99564.63;5133993;27;20035;-72
2021/12/30 07:28:15;;;;;;;12.38;7.50;;;;;;;18.24;20.94;99566.50;5134513;27;20035;-71
2021/12/30 07:30:40;;;;;;;12.55;7.40;;;;;;;18.23;21.44;99575.53;5134694;27;20117;-68
2021/12/30 07:33:07;;;;;;;9.27;6.90;;;;;;;18.23;21.19;99570.19;5133199;27;20027;-70
2021/12/30 07:35:35;;;;;;;13.95;8.93;;;;;;;18.26;21.18;99577.03;5133379;27;20038;-69
2021/12/30 07:38:01;;;;;;;13.88;9.10;;;;;;;18.27;21.43;99568.00;5133766;27;20057;-71
2021/12/30 07:40:27;;;;;;;11.68;7.78;;;;;;;18.26;21.31;99579.72;5134131;27;20468;-69
2021/12/30 07:42:53;;;;;;;13.32;7.90;;;;;;;18.29;21.21;99588.25;5134204;27;20039;-71
2021/12/30 07:45:18;;;;;;;11.60;8.20;;;;;;;18.32;21.15;99583.53;5133871;27;20121;-69
2021/12/30 07:47:45;;;;;;;13.55;7.78;;;;;;;18.31;21.17;99577.38;5133689;27;20092;-72
2021/12/30 07:50:12;;;;;;;14.00;9.05;;;;;;;18.33;21.13;99582.53;5134307;27;20394;-69
2021/12/30 07:52:38;;;;;;;12.05;8.60;;;;;;;18.31;21.05;99588.06;5125798;27;20036;-69
2021/12/30 07:55:05;;;;;;;11.95;8.57;;;;;;;18.34;21.21;99587.75;5113317;28;20038;-67
2021/12/30 07:57:31;;;;;;;11.90;8.00;;;;;;;18.36;21.34;99582.19;5113570;28;20031;-69
2021/12/30 07:59:56;;;;;;;11.85;9.00;;;;;;;18.39;21.35;99581.88;5127817;27;20136;-69
2021/12/30 08:02:22;;;;;;;15.48;8.50;;;;;;;18.41;21.29;99585.22;5133876;27;20042;-71
2021/12/30 08:04:48;;;;;;;12.35;7.80;;;;;;;18.43;21.32;99583.22;5133735;27;20039;-71
2021/12/30 08:07:19;;;;;;;10.55;7.43;;;;;;;18.44;21.32;99584.88;5132961;27;20439;-68
2021/12/30 08:09:44;;;;;;;;;;;;;;;18.30;22.16;99581.91;5134048;27;20083;-69
2021/12/30 08:12:10;;;;;;;11.65;8.27;;;;;;;18.35;21.55;99578.72;5133729;27;19911;-71
2021/12/30 08:14:35;;;;;;;9.75;8.35;;;;;;;18.41;21.41;99574.50;5133660;27;20037;-69
2021/12/30 08:17:01;;;;;;;12.75;8.90;;;;;;;18.44;21.45;99577.66;5133103;27;20071;-70
2021/12/30 08:19:26;;;;;;;15.00;10.60;;;;;;;18.47;21.40;99581.84;5132135;27;20054;-70
2021/12/30 08:21:52;;;;;;;14.43;9.82;;;;;;;18.51;21.39;99583.19;5132711;27;20035;-69
2021/12/30 08:24:17;;;;;;;13.13;8.20;;;;;;;18.54;21.36;99582.84;5133829;27;20035;-70
2021/12/30 08:26:43;;;;;;;11.98;9.23;;;;;;;18.59;21.37;99575.13;5132277;27;20027;-71
2021/12/30 08:29:08;;;;;;;13.88;8.35;;;;;;;18.64;21.46;99576.44;5133541;27;20073;-68
2021/12/30 08:31:35;;;;;;;14.63;9.75;;;;;;;18.64;21.30;99581.78;5114425;27;20068;-65
2021/12/30 08:34:02;;;;;;;13.38;7.80;;;;;;;18.67;21.32;99571.59;5133588;27;20038;-70
2021/12/30 08:36:27;;;;;;;13.57;10.15;;;;;;;18.74;21.26;99571.72;5133071;27;20139;-69
2021/12/30 08:38:53;;;;;;;11.65;9.02;;;;;;;18.74;21.26;99563.69;5132832;27;20171;-69
2021/12/30 08:41:18;;;;;;;13.77;9.07;;;;;;;18.74;21.12;99564.50;5133233;27;20084;-71
2021/12/30 08:43:44;;;;;;;11.38;8.63;;;;;;;18.76;21.12;99569.69;5133400;27;20030;-71
2021/12/30 08:46:10;;;;;;;14.27;9.50;;;;;;;18.79;21.10;99569.34;5133172;27;20030;-71
2021/12/30 08:48:37;;;;;;;11.70;8.68;;;;;;;18.83;21.00;99570.69;5132556;27;20414;-69
2021/12/30 08:51:03;;;;;;;14.00;9.32;;;;;;;18.84;21.06;99569.66;5133173;27;20031;-71
2021/12/30 08:53:29;;;;;;;12.73;8.88;;;;;;;18.84;21.30;99566.13;5132154;27;20058;-70
2021/12/30 08:55:55;;;;;;;13.35;8.88;;;;;;;18.87;21.16;99565.78;5132478;27;20107;-71
2021/12/30 08:58:20;;;;;;;15.18;9.32;;;;;;;18.89;20.88;99555.75;5132770;27;20027;-71
2021/12/30 09:00:47;;;;;;;12.43;8.75;;;;;;;18.90;21.34;99566.28;5133333;28;20019;-70
2021/12/30 09:03:15;;;;;;;15.65;8.82;;;;;;;18.94;21.14;99560.56;5132546;28;20039;-70
2021/12/30 09:05:41;;;;;;;12.35;8.50;;;;;;;18.94;21.33;99561.44;5127136;28;20039;-67
2021/12/30 09:08:07;;;;;;;12.50;8.32;;;;;;;18.98;21.26;99554.72;5120673;28;20038;-69
2021/12/30 09:10:37;;;;;;;11.77;9.25;;;;;;;19.00;21.51;99552.69;5127183;28;20062;-68
2021/12/30 09:13:03;;;;;;;12.77;8.35;;;;;;;19.00;21.23;99546.50;5123244;28;20023;-68
2021/12/30 09:15:30;;;;;;;11.80;8.82;;;;;;;19.01;21.17;99551.69;5130051;28;20065;-69
2021/12/30 09:17:56;;;;;;;14.25;8.70;;;;;;;19.04;21.42;99554.03;5132494;28;20100;-70
2021/12/30 09:20:22;;;;;;;13.02;8.48;;;;;;;19.07;21.24;99560.88;5132976;28;20042;-74
2021/12/30 09:22:48;;;;;;;11.77;8.77;;;;;;;19.09;21.28;99566.91;5130470;28;20050;-68
2021/12/30 09:25:17;;;;;;;13.07;10.05;;;;;;;19.13;21.18;99562.00;5130686;28;20122;-67
2021/12/30 09:27:43;;;;;;;12.50;8.95;;;;;;;19.16;21.17;99564.34;5131507;28;20035;-70
2021/12/30 09:30:11;;;;;;;11.88;9.05;;;;;;;19.18;21.23;99560.50;5131674;28;20162;-75
2021/12/30 09:32:38;;;;;;;12.48;8.65;;;;;;;19.20;21.80;99553.09;5128106;28;20087;-70
2021/12/30 09:35:04;;;;;;;10.60;7.25;;;;;;;19.26;22.27;99548.88;5128373;28;20031;-66
2021/12/30 09:37:29;;;;;;;12.05;8.35;;;;;;;19.34;22.16;99546.13;5128063;28;20121;-67
2021/12/30 09:39:55;;;;;;;13.50;9.45;;;;;;;19.40;22.17;99557.19;5131873;28;20027;-69
2021/12/30 09:42:20;;;;;;;10.98;8.80;;;;;;;19.44;21.93;99547.72;5125264;28;20059;-67
2021/12/30 09:44:46;;;;;;;11.15;8.65;;;;;;;19.47;21.86;99550.91;5131604;28;20031;-69
2021/12/30 09:47:12;;;;;;;12.63;7.97;;;;;;;19.49;22.21;99548.88;5121116;28;20031;-69
2021/12/30 09:49:37;;;;;;;12.43;8.20;;;;;;;19.48;22.44;99549.88;5126642;28;20431;-67
2021/12/30 09:52:04;;;;;;;11.38;7.05;;;;;;;19.47;22.68;99542.88;5128110;28;20035;-69
2021/12/30 09:54:30;;;;;;;18.15;8.15;;;;;;;19.49;23.00;99535.44;5130661;28;20086;-68
2021/12/30 09:56:55;;;;;;;11.95;8.00;;;;;;;19.54;23.32;99539.44;5120699;28;20039;-66
2021/12/30 09:59:24;;;;;;;13.13;8.25;;;;;;;19.56;23.37;99532.06;5129197;28;20035;-69
2021/12/30 10:01:51;;;;;;;9.68;7.28;;;;;;;19.56;23.42;99537.44;5128548;28;20031;-70
2021/12/30 10:04:17;;;;;;;10.45;7.43;;;;;;;19.54;23.39;99529.56;5128716;28;20057;-70
2021/12/30 10:06:46;;;;;;;10.93;8.00;;;;;;;19.57;23.49;99525.69;5120776;27;20027;-71
2021/12/30 10:09:15;;;;;;;12.40;7.50;;;;;;;19.58;23.76;99521.97;5129664;27;20358;-72
2021/12/30 10:11:53;;;;;;;10.85;7.63;;;;;;;19.60;23.92;99519.97;5119068;27;20043;-69
2021/12/30 10:14:32;;;;;;;11.05;7.00;;;;;;;19.60;23.68;99511.91;5115759;27;20039;-70
2021/12/30 10:17:18;;;;;;;10.15;7.75;;;;;;;19.63;23.88;99514.25;5122076;27;20115;-70
2021/12/30 10:19:44;;;;;;;11.52;8.20;;;;;;;19.61;23.62;99513.56;5136189;27;20034;-69
2021/12/30 10:22:11;;;;;;;13.98;7.93;;;;;;;19.68;23.66;99519.88;5128198;27;20028;-68
2021/12/30 10:24:38;;;;;;;12.20;8.02;;;;;;;19.71;23.83;99524.03;5119572;27;20501;-69
2021/12/30 10:27:04;;;;;;;10.63;7.25;;;;;;;19.75;23.84;99515.47;5135650;27;20030;-73
2021/12/30 10:29:43;;;;;;;11.15;8.70;;;;;;;19.80;24.00;99512.22;5127471;27;20113;-72
2021/12/30 10:32:17;;;;;;;10.77;7.82;;;;;;;19.84;23.92;99508.19;5133481;27;20027;-75
2021/12/30 10:35:14;;;;;;;14.07;8.73;;;;;;;19.90;23.95;99501.28;5115388;28;20043;-70
2021/12/30 10:37:46;;;;;;;11.02;7.72;;;;;;;19.97;23.82;99496.81;5121220;27;20432;-73
2021/12/30 10:40:26;;;;;;;10.38;7.82;;;;;;;20.09;23.80;99489.16;5127623;27;20061;-77
2021/12/30 10:42:51;;;;;;;9.05;7.03;;;;;;;20.09;23.54;99491.84;5130089;27;20073;-69
2021/12/30 10:45:20;;;;;;;8.10;6.63;;;;;;;20.07;23.77;99485.81;5129022;27;20039;-66
2021/12/30 10:47:54;;;;;;;12.40;7.13;;;;;;;19.84;24.02;99478.66;5121952;27;20556;-64
2021/12/30 10:50:24;;;;;;;9.43;6.47;;;;;;;19.56;24.54;99481.06;5121984;27;20126;-65
2021/12/30 10:52:53;;;;;;;10.07;7.53;;;;;;;19.29;24.63;99477.94;5126266;27;20031;-64
2021/12/30 10:55:20;;;;;;;10.80;7.55;;;;;;;19.12;24.47;99479.88;5135206;27;20138;-64
2021/12/30 10:57:46;;;;;;;13.35;6.95;;;;;;;18.97;24.60;99482.50;5135024;27;20038;-64
2021/12/30 11:00:31;;;;;;;8.80;6.88;;;;;;;18.82;24.89;99482.41;5135257;27;20035;-64
2021/12/30 11:03:26;;;;;;;10.75;7.22;;;;;;;18.67;24.95;99469.75;5134354;27;20046;-65
2021/12/30 11:06:17;;;;;;;9.73;7.03;;;;;;;18.54;24.99;99475.66;5134008;27;20045;-63
2021/12/30 11:08:46;;;;;;;10.52;7.18;;;;;;;18.47;25.19;99484.56;5135053;27;20035;-63
2021/12/30 11:11:26;;;;;;;11.65;7.53;;;;;;;18.40;25.11;99479.06;5134274;27;20061;-64
2021/12/30 11:14:02;;;;;;;10.63;7.93;;;;;;;18.33;25.08;99480.75;5132213;27;20047;-64
2021/12/30 11:16:28;;;;;;;13.60;7.47;;;;;;;18.30;25.07;99484.63;5135290;27;20039;-65
2021/12/30 11:18:56;;;;;;;13.07;8.50;;;;;;;18.26;25.16;99481.47;5132835;27;20054;-64
2021/12/30 11:21:51;;;;;;;14.48;7.18;;;;;;;18.21;24.87;99486.50;5134876;27;20075;-64
2021/12/30 11:24:17;;;;;;;11.10;7.05;;;;;;;18.19;24.95;99479.66;5130216;27;20133;-64